sensor_id;sensor_type;location;lat;lon;timestamp;P1;durP1;ratioP1;P2;durP2;ratioP2
49488;SDS011;35382;51.484;11.476;2023-05-14T00:00:20;14.48;;;9.45;;
49488;SDS011;35382;51.484;11.476;2023-05-14T00:02:01;10.32;;;9.10;;
49488;SDS011;35382;51.484;11.476;2023-05-14T00:03:42;12.18;;;9.60;;
49488;SDS011;35382;51.484;11.476;2023-05-14T00:05:23;11.05;;;9.10;;
49488;SDS011;35382;51.484;11.476;2023-05-14T00:07:04;12.00;;;9.00;;
49488;SDS011;35382;51.484;11.476;2023-05-14T00:08:45;12.10;;;9.15;;
49488;SDS011;35382;51.484;11.476;2023-05-14T00:10:26;10.75;;;8.70;;
49488;SDS011;35382;51.484;11.476;2023-05-14T00:12:07;10.07;;;8.32;;
49488;SDS011;35382;51.484;11.476;2023-05-14T00:13:49;10.55;;;8.73;;
49488;SDS011;35382;51.484;11.476;2023-05-14T00:15:30;11.00;;;8.63;;
49488;SDS011;35382;51.484;11.476;2023-05-14T00:17:11;11.45;;;8.30;;
49488;SDS011;35382;51.484;11.476;2023-05-14T00:18:52;10.30;;;8.73;;
49488;SDS011;35382;51.484;11.476;2023-05-14T00:20:33;10.15;;;7.85;;
49488;SDS011;35382;51.484;11.476;2023-05-14T00:22:14;10.15;;;8.32;;
49488;SDS011;35382;51.484;11.476;2023-05-14T00:23:55;11.45;;;8.18;;
49488;SDS011;35382;51.484;11.476;2023-05-14T00:25:36;9.60;;;8.13;;
49488;SDS011;35382;51.484;11.476;2023-05-14T00:27:17;11.05;;;8.95;;
49488;SDS011;35382;51.484;11.476;2023-05-14T00:28:58;9.85;;;8.30;;
49488;SDS011;35382;51.484;11.476;2023-05-14T00:30:39;10.30;;;8.40;;
49488;SDS011;35382;51.484;11.476;2023-05-14T00:32:20;10.35;;;8.25;;
49488;SDS011;35382;51.484;11.476;2023-05-14T00:34:01;9.43;;;7.97;;
49488;SDS011;35382;51.484;11.476;2023-05-14T00:35:42;11.38;;;8.25;;
49488;SDS011;35382;51.484;11.476;2023-05-14T00:37:23;9.02;;;8.02;;
49488;SDS011;35382;51.484;11.476;2023-05-14T00:39:04;10.18;;;8.20;;
49488;SDS011;35382;51.484;11.476;2023-05-14T00:40:45;10.57;;;8.27;;
49488;SDS011;35382;51.484;11.476;2023-05-14T00:42:30;9.15;;;7.93;;
49488;SDS011;35382;51.484;11.476;2023-05-14T00:44:11;9.70;;;8.20;;
49488;SDS011;35382;51.484;11.476;2023-05-14T00:45:53;10.02;;;8.13;;
49488;SDS011;35382;51.484;11.476;2023-05-14T00:47:34;9.60;;;7.75;;
49488;SDS011;35382;51.484;11.476;2023-05-14T00:49:17;10.23;;;8.27;;
49488;SDS011;35382;51.484;11.476;2023-05-14T00:50:58;11.82;;;8.27;;
49488;SDS011;35382;51.484;11.476;2023-05-14T00:52:40;10.23;;;8.25;;
49488;SDS011;35382;51.484;11.476;2023-05-14T00:54:22;11.02;;;8.15;;
49488;SDS011;35382;51.484;11.476;2023-05-14T00:56:03;9.43;;;7.68;;
49488;SDS011;35382;51.484;11.476;2023-05-14T00:57:44;9.80;;;7.75;;
49488;SDS011;35382;51.484;11.476;2023-05-14T00:59:25;9.52;;;7.70;;
49488;SDS011;35382;51.484;11.476;2023-05-14T01:01:06;10.13;;;8.20;;
49488;SDS011;35382;51.484;11.476;2023-05-14T01:02:47;9.05;;;7.32;;
49488;SDS011;35382;51.484;11.476;2023-05-14T01:04:28;11.07;;;8.20;;
49488;SDS011;35382;51.484;11.476;2023-05-14T01:06:25;9.80;;;8.13;;
49488;SDS011;35382;51.484;11.476;2023-05-14T01:10:21;8.93;;;7.50;;
49488;SDS011;35382;51.484;11.476;2023-05-14T01:12:10;9.40;;;7.63;;
49488;SDS011;35382;51.484;11.476;2023-05-14T01:14:31;10.52;;;8.18;;
49488;SDS011;35382;51.484;11.476;2023-05-14T01:16:13;11.40;;;8.32;;
49488;SDS011;35382;51.484;11.476;2023-05-14T01:17:59;9.45;;;7.90;;
49488;SDS011;35382;51.484;11.476;2023-05-14T01:19:44;10.57;;;8.23;;
49488;SDS011;35382;51.484;11.476;2023-05-14T01:21:36;10.27;;;8.02;;
49488;SDS011;35382;51.484;11.476;2023-05-14T01:23:19;9.98;;;8.52;;
49488;SDS011;35382;51.484;11.476;2023-05-14T01:25:00;10.25;;;8.25;;
49488;SDS011;35382;51.484;11.476;2023-05-14T01:26:41;10.07;;;8.23;;
49488;SDS011;35382;51.484;11.476;2023-05-14T01:28:25;10.98;;;8.63;;
49488;SDS011;35382;51.484;11.476;2023-05-14T01:30:20;10.85;;;8.13;;
49488;SDS011;35382;51.484;11.476;2023-05-14T01:32:06;12.55;;;8.40;;
49488;SDS011;35382;51.484;11.476;2023-05-14T01:33:49;11.20;;;8.23;;
49488;SDS011;35382;51.484;11.476;2023-05-14T01:35:31;10.02;;;8.13;;
49488;SDS011;35382;51.484;11.476;2023-05-14T01:37:12;9.85;;;8.45;;
49488;SDS011;35382;51.484;11.476;2023-05-14T01:38:54;10.43;;;8.80;;
49488;SDS011;35382;51.484;11.476;2023-05-14T01:40:36;10.75;;;8.23;;
49488;SDS011;35382;51.484;11.476;2023-05-14T01:42:17;9.02;;;7.90;;
49488;SDS011;35382;51.484;11.476;2023-05-14T01:43:58;10.68;;;8.40;;
49488;SDS011;35382;51.484;11.476;2023-05-14T01:45:40;12.73;;;8.95;;
49488;SDS011;35382;51.484;11.476;2023-05-14T01:47:22;11.60;;;8.30;;
49488;SDS011;35382;51.484;11.476;2023-05-14T01:49:02;11.02;;;8.45;;
49488;SDS011;35382;51.484;11.476;2023-05-14T01:50:43;11.80;;;8.85;;
49488;SDS011;35382;51.484;11.476;2023-05-14T01:52:25;12.52;;;8.80;;
49488;SDS011;35382;51.484;11.476;2023-05-14T01:54:06;11.57;;;8.73;;
49488;SDS011;35382;51.484;11.476;2023-05-14T01:55:47;11.30;;;8.82;;
49488;SDS011;35382;51.484;11.476;2023-05-14T01:57:28;9.95;;;8.52;;
49488;SDS011;35382;51.484;11.476;2023-05-14T01:59:09;10.18;;;8.88;;
49488;SDS011;35382;51.484;11.476;2023-05-14T02:00:50;10.50;;;7.97;;
49488;SDS011;35382;51.484;11.476;2023-05-14T02:02:31;9.75;;;8.15;;
49488;SDS011;35382;51.484;11.476;2023-05-14T02:04:12;12.38;;;8.40;;
49488;SDS011;35382;51.484;11.476;2023-05-14T02:05:55;9.43;;;8.15;;
49488;SDS011;35382;51.484;11.476;2023-05-14T02:07:36;10.55;;;8.82;;
49488;SDS011;35382;51.484;11.476;2023-05-14T02:09:17;10.30;;;7.82;;
49488;SDS011;35382;51.484;11.476;2023-05-14T02:10:58;10.60;;;8.43;;
49488;SDS011;35382;51.484;11.476;2023-05-14T02:12:40;9.45;;;8.10;;
49488;SDS011;35382;51.484;11.476;2023-05-14T02:14:21;9.80;;;8.55;;
49488;SDS011;35382;51.484;11.476;2023-05-14T02:16:02;11.15;;;8.73;;
49488;SDS011;35382;51.484;11.476;2023-05-14T02:17:43;9.73;;;8.32;;
49488;SDS011;35382;51.484;11.476;2023-05-14T02:19:24;11.85;;;8.75;;
49488;SDS011;35382;51.484;11.476;2023-05-14T02:21:06;9.88;;;8.35;;
49488;SDS011;35382;51.484;11.476;2023-05-14T02:22:46;11.48;;;8.18;;
49488;SDS011;35382;51.484;11.476;2023-05-14T02:24:27;11.43;;;8.90;;
49488;SDS011;35382;51.484;11.476;2023-05-14T02:26:10;11.18;;;9.05;;
49488;SDS011;35382;51.484;11.476;2023-05-14T02:27:52;10.43;;;8.70;;
49488;SDS011;35382;51.484;11.476;2023-05-14T02:29:33;10.63;;;8.48;;
49488;SDS011;35382;51.484;11.476;2023-05-14T02:31:14;11.00;;;8.70;;
49488;SDS011;35382;51.484;11.476;2023-05-14T02:32:57;12.55;;;8.75;;
49488;SDS011;35382;51.484;11.476;2023-05-14T02:34:38;9.98;;;8.30;;
49488;SDS011;35382;51.484;11.476;2023-05-14T02:36:19;10.57;;;8.32;;
49488;SDS011;35382;51.484;11.476;2023-05-14T02:38:00;11.05;;;8.60;;
49488;SDS011;35382;51.484;11.476;2023-05-14T02:39:42;12.38;;;8.75;;
49488;SDS011;35382;51.484;11.476;2023-05-14T02:41:22;10.43;;;8.55;;
49488;SDS011;35382;51.484;11.476;2023-05-14T02:43:03;10.80;;;8.60;;
49488;SDS011;35382;51.484;11.476;2023-05-14T02:44:45;10.18;;;8.65;;
49488;SDS011;35382;51.484;11.476;2023-05-14T02:46:26;11.73;;;8.52;;
49488;SDS011;35382;51.484;11.476;2023-05-14T02:48:09;10.52;;;8.68;;
49488;SDS011;35382;51.484;11.476;2023-05-14T02:49:49;9.45;;;7.93;;
49488;SDS011;35382;51.484;11.476;2023-05-14T02:51:31;12.75;;;8.38;;
49488;SDS011;35382;51.484;11.476;2023-05-14T02:53:12;10.77;;;8.57;;
49488;SDS011;35382;51.484;11.476;2023-05-14T02:54:53;10.25;;;8.30;;
49488;SDS011;35382;51.484;11.476;2023-05-14T02:56:33;9.57;;;8.23;;
49488;SDS011;35382;51.484;11.476;2023-05-14T02:58:14;10.27;;;8.48;;
49488;SDS011;35382;51.484;11.476;2023-05-14T02:59:55;9.98;;;8.65;;
49488;SDS011;35382;51.484;11.476;2023-05-14T03:01:36;10.70;;;8.65;;
49488;SDS011;35382;51.484;11.476;2023-05-14T03:03:17;10.80;;;9.00;;
49488;SDS011;35382;51.484;11.476;2023-05-14T03:04:59;10.60;;;9.15;;
49488;SDS011;35382;51.484;11.476;2023-05-14T03:06:40;10.82;;;8.88;;
49488;SDS011;35382;51.484;11.476;2023-05-14T03:08:20;10.18;;;8.90;;
49488;SDS011;35382;51.484;11.476;2023-05-14T03:10:01;10.50;;;8.70;;
49488;SDS011;35382;51.484;11.476;2023-05-14T03:11:44;10.32;;;8.73;;
49488;SDS011;35382;51.484;11.476;2023-05-14T03:13:25;10.85;;;8.68;;
49488;SDS011;35382;51.484;11.476;2023-05-14T03:15:07;12.52;;;8.70;;
49488;SDS011;35382;51.484;11.476;2023-05-14T03:16:48;11.73;;;9.48;;
49488;SDS011;35382;51.484;11.476;2023-05-14T03:18:29;10.40;;;9.27;;
49488;SDS011;35382;51.484;11.476;2023-05-14T03:20:11;11.48;;;9.10;;
49488;SDS011;35382;51.484;11.476;2023-05-14T03:21:55;11.07;;;9.50;;
49488;SDS011;35382;51.484;11.476;2023-05-14T03:23:36;11.90;;;9.80;;
49488;SDS011;35382;51.484;11.476;2023-05-14T03:25:17;10.13;;;8.65;;
49488;SDS011;35382;51.484;11.476;2023-05-14T03:26:58;11.13;;;9.05;;
49488;SDS011;35382;51.484;11.476;2023-05-14T03:28:39;10.63;;;9.05;;
49488;SDS011;35382;51.484;11.476;2023-05-14T03:30:20;10.73;;;9.00;;
49488;SDS011;35382;51.484;11.476;2023-05-14T03:32:02;16.55;;;9.73;;
49488;SDS011;35382;51.484;11.476;2023-05-14T03:33:43;12.10;;;9.20;;
49488;SDS011;35382;51.484;11.476;2023-05-14T03:35:24;10.90;;;9.23;;
49488;SDS011;35382;51.484;11.476;2023-05-14T03:37:05;10.98;;;9.50;;
49488;SDS011;35382;51.484;11.476;2023-05-14T03:38:46;11.32;;;9.60;;
49488;SDS011;35382;51.484;11.476;2023-05-14T03:40:27;12.02;;;9.80;;
49488;SDS011;35382;51.484;11.476;2023-05-14T03:42:08;11.98;;;10.23;;
49488;SDS011;35382;51.484;11.476;2023-05-14T03:43:49;14.15;;;10.57;;
49488;SDS011;35382;51.484;11.476;2023-05-14T03:45:30;10.98;;;9.82;;
49488;SDS011;35382;51.484;11.476;2023-05-14T03:47:13;12.07;;;9.60;;
49488;SDS011;35382;51.484;11.476;2023-05-14T03:48:54;11.15;;;9.68;;
49488;SDS011;35382;51.484;11.476;2023-05-14T03:50:35;13.52;;;10.48;;
49488;SDS011;35382;51.484;11.476;2023-05-14T03:52:16;12.82;;;11.10;;
49488;SDS011;35382;51.484;11.476;2023-05-14T03:53:58;12.55;;;10.30;;
49488;SDS011;35382;51.484;11.476;2023-05-14T03:55:39;13.10;;;11.13;;
49488;SDS011;35382;51.484;11.476;2023-05-14T03:57:24;14.27;;;11.27;;
49488;SDS011;35382;51.484;11.476;2023-05-14T03:59:05;13.27;;;10.98;;
49488;SDS011;35382;51.484;11.476;2023-05-14T04:00:46;12.55;;;10.32;;
49488;SDS011;35382;51.484;11.476;2023-05-14T04:02:27;11.82;;;10.52;;
49488;SDS011;35382;51.484;11.476;2023-05-14T04:04:09;13.40;;;10.35;;
49488;SDS011;35382;51.484;11.476;2023-05-14T04:05:50;14.95;;;10.52;;
49488;SDS011;35382;51.484;11.476;2023-05-14T04:07:31;13.10;;;10.40;;
49488;SDS011;35382;51.484;11.476;2023-05-14T04:09:13;11.23;;;10.02;;
49488;SDS011;35382;51.484;11.476;2023-05-14T04:10:54;14.07;;;10.20;;
49488;SDS011;35382;51.484;11.476;2023-05-14T04:12:36;12.07;;;10.55;;
49488;SDS011;35382;51.484;11.476;2023-05-14T04:14:17;12.00;;;9.88;;
49488;SDS011;35382;51.484;11.476;2023-05-14T04:15:59;11.43;;;9.75;;
49488;SDS011;35382;51.484;11.476;2023-05-14T04:17:40;11.75;;;9.95;;
49488;SDS011;35382;51.484;11.476;2023-05-14T04:19:21;11.95;;;9.35;;
49488;SDS011;35382;51.484;11.476;2023-05-14T04:21:02;11.60;;;9.73;;
49488;SDS011;35382;51.484;11.476;2023-05-14T04:22:43;11.52;;;9.60;;
49488;SDS011;35382;51.484;11.476;2023-05-14T04:24:23;10.93;;;9.73;;
49488;SDS011;35382;51.484;11.476;2023-05-14T04:26:05;11.82;;;9.48;;
49488;SDS011;35382;51.484;11.476;2023-05-14T04:27:46;12.40;;;10.30;;
49488;SDS011;35382;51.484;11.476;2023-05-14T04:29:27;11.52;;;9.35;;
49488;SDS011;35382;51.484;11.476;2023-05-14T04:31:08;11.90;;;9.35;;
49488;SDS011;35382;51.484;11.476;2023-05-14T04:32:49;11.95;;;9.63;;
49488;SDS011;35382;51.484;11.476;2023-05-14T04:34:30;11.85;;;9.20;;
49488;SDS011;35382;51.484;11.476;2023-05-14T04:36:11;12.25;;;9.05;;
49488;SDS011;35382;51.484;11.476;2023-05-14T04:37:52;11.70;;;9.63;;
49488;SDS011;35382;51.484;11.476;2023-05-14T04:39:33;11.70;;;9.23;;
49488;SDS011;35382;51.484;11.476;2023-05-14T04:41:14;11.13;;;9.57;;
49488;SDS011;35382;51.484;11.476;2023-05-14T04:42:54;11.40;;;9.55;;
49488;SDS011;35382;51.484;11.476;2023-05-14T04:44:35;11.95;;;9.75;;
49488;SDS011;35382;51.484;11.476;2023-05-14T04:46:17;12.30;;;9.52;;
49488;SDS011;35382;51.484;11.476;2023-05-14T04:47:58;12.63;;;9.63;;
49488;SDS011;35382;51.484;11.476;2023-05-14T04:49:39;11.02;;;9.32;;
49488;SDS011;35382;51.484;11.476;2023-05-14T04:51:20;11.77;;;10.20;;
49488;SDS011;35382;51.484;11.476;2023-05-14T04:53:01;11.75;;;10.00;;
49488;SDS011;35382;51.484;11.476;2023-05-14T04:54:42;11.25;;;9.68;;
49488;SDS011;35382;51.484;11.476;2023-05-14T04:56:24;14.48;;;11.10;;
49488;SDS011;35382;51.484;11.476;2023-05-14T04:58:05;14.50;;;10.70;;
49488;SDS011;35382;51.484;11.476;2023-05-14T04:59:46;12.73;;;9.82;;
49488;SDS011;35382;51.484;11.476;2023-05-14T05:01:27;12.30;;;9.38;;
49488;SDS011;35382;51.484;11.476;2023-05-14T05:03:08;10.93;;;9.63;;
49488;SDS011;35382;51.484;11.476;2023-05-14T05:04:49;11.05;;;8.85;;
49488;SDS011;35382;51.484;11.476;2023-05-14T05:06:30;12.50;;;9.68;;
49488;SDS011;35382;51.484;11.476;2023-05-14T05:08:11;10.95;;;9.68;;
49488;SDS011;35382;51.484;11.476;2023-05-14T05:09:52;12.50;;;9.85;;
49488;SDS011;35382;51.484;11.476;2023-05-14T05:11:33;12.18;;;9.55;;
49488;SDS011;35382;51.484;11.476;2023-05-14T05:13:13;11.35;;;9.30;;
49488;SDS011;35382;51.484;11.476;2023-05-14T05:14:56;11.88;;;9.40;;
49488;SDS011;35382;51.484;11.476;2023-05-14T05:16:37;11.70;;;8.88;;
49488;SDS011;35382;51.484;11.476;2023-05-14T05:18:18;10.60;;;8.57;;
49488;SDS011;35382;51.484;11.476;2023-05-14T05:19:59;10.85;;;9.02;;
49488;SDS011;35382;51.484;11.476;2023-05-14T05:21:40;10.52;;;8.93;;
49488;SDS011;35382;51.484;11.476;2023-05-14T05:23:21;13.18;;;9.40;;
49488;SDS011;35382;51.484;11.476;2023-05-14T05:25:02;13.93;;;10.07;;
49488;SDS011;35382;51.484;11.476;2023-05-14T05:26:47;10.95;;;9.48;;
49488;SDS011;35382;51.484;11.476;2023-05-14T05:28:29;12.95;;;10.38;;
49488;SDS011;35382;51.484;11.476;2023-05-14T05:30:11;12.38;;;10.02;;
49488;SDS011;35382;51.484;11.476;2023-05-14T05:31:55;11.02;;;9.52;;
49488;SDS011;35382;51.484;11.476;2023-05-14T05:33:36;11.23;;;9.23;;
49488;SDS011;35382;51.484;11.476;2023-05-14T05:35:17;11.40;;;8.75;;
49488;SDS011;35382;51.484;11.476;2023-05-14T05:36:58;12.25;;;9.15;;
49488;SDS011;35382;51.484;11.476;2023-05-14T05:38:38;12.10;;;9.60;;
49488;SDS011;35382;51.484;11.476;2023-05-14T05:40:19;11.75;;;8.90;;
49488;SDS011;35382;51.484;11.476;2023-05-14T05:42:01;9.05;;;8.07;;
49488;SDS011;35382;51.484;11.476;2023-05-14T05:43:42;9.95;;;8.50;;
49488;SDS011;35382;51.484;11.476;2023-05-14T05:45:25;11.90;;;8.40;;
49488;SDS011;35382;51.484;11.476;2023-05-14T05:47:08;11.30;;;8.77;;
49488;SDS011;35382;51.484;11.476;2023-05-14T05:48:49;11.50;;;8.90;;
49488;SDS011;35382;51.484;11.476;2023-05-14T05:50:30;9.23;;;8.02;;
49488;SDS011;35382;51.484;11.476;2023-05-14T05:52:11;11.40;;;9.05;;
49488;SDS011;35382;51.484;11.476;2023-05-14T05:53:52;10.90;;;9.70;;
49488;SDS011;35382;51.484;11.476;2023-05-14T05:55:33;8.88;;;7.60;;
49488;SDS011;35382;51.484;11.476;2023-05-14T05:57:14;9.82;;;8.25;;
49488;SDS011;35382;51.484;11.476;2023-05-14T05:58:55;10.50;;;7.85;;
49488;SDS011;35382;51.484;11.476;2023-05-14T06:00:36;9.43;;;7.97;;
49488;SDS011;35382;51.484;11.476;2023-05-14T06:02:17;13.13;;;8.20;;
49488;SDS011;35382;51.484;11.476;2023-05-14T06:03:59;11.13;;;8.40;;
49488;SDS011;35382;51.484;11.476;2023-05-14T06:05:40;8.82;;;7.28;;
49488;SDS011;35382;51.484;11.476;2023-05-14T06:07:21;9.70;;;7.93;;
49488;SDS011;35382;51.484;11.476;2023-05-14T06:09:02;8.88;;;7.90;;
49488;SDS011;35382;51.484;11.476;2023-05-14T06:10:43;10.88;;;7.78;;
49488;SDS011;35382;51.484;11.476;2023-05-14T06:12:25;10.38;;;8.00;;
49488;SDS011;35382;51.484;11.476;2023-05-14T06:14:07;11.02;;;8.45;;
49488;SDS011;35382;51.484;11.476;2023-05-14T06:15:50;11.30;;;8.93;;
49488;SDS011;35382;51.484;11.476;2023-05-14T06:17:31;9.15;;;7.85;;
49488;SDS011;35382;51.484;11.476;2023-05-14T06:19:12;9.18;;;7.30;;
49488;SDS011;35382;51.484;11.476;2023-05-14T06:20:53;9.50;;;7.60;;
49488;SDS011;35382;51.484;11.476;2023-05-14T06:22:41;9.27;;;7.22;;
49488;SDS011;35382;51.484;11.476;2023-05-14T06:24:22;9.23;;;7.30;;
49488;SDS011;35382;51.484;11.476;2023-05-14T06:26:03;12.77;;;7.28;;
49488;SDS011;35382;51.484;11.476;2023-05-14T06:27:44;9.20;;;6.63;;
49488;SDS011;35382;51.484;11.476;2023-05-14T06:29:25;8.95;;;6.28;;
49488;SDS011;35382;51.484;11.476;2023-05-14T06:31:06;8.68;;;6.05;;
49488;SDS011;35382;51.484;11.476;2023-05-14T06:32:47;12.75;;;6.55;;
49488;SDS011;35382;51.484;11.476;2023-05-14T06:34:28;8.50;;;6.72;;
49488;SDS011;35382;51.484;11.476;2023-05-14T06:36:10;8.20;;;6.53;;
49488;SDS011;35382;51.484;11.476;2023-05-14T06:37:50;10.80;;;7.07;;
49488;SDS011;35382;51.484;11.476;2023-05-14T06:39:31;8.80;;;7.13;;
49488;SDS011;35382;51.484;11.476;2023-05-14T06:41:16;10.15;;;7.07;;
49488;SDS011;35382;51.484;11.476;2023-05-14T06:42:57;10.18;;;7.13;;
49488;SDS011;35382;51.484;11.476;2023-05-14T06:44:38;9.35;;;6.72;;
49488;SDS011;35382;51.484;11.476;2023-05-14T06:46:20;10.38;;;6.30;;
49488;SDS011;35382;51.484;11.476;2023-05-14T06:48:01;9.65;;;6.05;;
49488;SDS011;35382;51.484;11.476;2023-05-14T06:49:42;9.18;;;6.82;;
49488;SDS011;35382;51.484;11.476;2023-05-14T06:51:23;8.95;;;6.60;;
49488;SDS011;35382;51.484;11.476;2023-05-14T06:53:04;8.38;;;6.32;;
49488;SDS011;35382;51.484;11.476;2023-05-14T06:54:45;7.65;;;6.40;;
49488;SDS011;35382;51.484;11.476;2023-05-14T06:56:26;8.65;;;6.72;;
49488;SDS011;35382;51.484;11.476;2023-05-14T06:58:07;8.38;;;6.22;;
49488;SDS011;35382;51.484;11.476;2023-05-14T06:59:49;9.98;;;6.55;;
49488;SDS011;35382;51.484;11.476;2023-05-14T07:01:30;7.95;;;5.78;;
49488;SDS011;35382;51.484;11.476;2023-05-14T07:03:10;9.93;;;6.50;;
49488;SDS011;35382;51.484;11.476;2023-05-14T07:04:53;7.80;;;6.55;;
49488;SDS011;35382;51.484;11.476;2023-05-14T07:06:34;8.48;;;6.72;;
49488;SDS011;35382;51.484;11.476;2023-05-14T07:08:15;8.75;;;6.82;;
49488;SDS011;35382;51.484;11.476;2023-05-14T07:09:56;9.60;;;6.85;;
49488;SDS011;35382;51.484;11.476;2023-05-14T07:11:37;8.38;;;5.82;;
49488;SDS011;35382;51.484;11.476;2023-05-14T07:13:18;8.60;;;6.20;;
49488;SDS011;35382;51.484;11.476;2023-05-14T07:15:01;8.15;;;6.18;;
49488;SDS011;35382;51.484;11.476;2023-05-14T07:16:42;8.65;;;6.82;;
49488;SDS011;35382;51.484;11.476;2023-05-14T07:18:24;7.97;;;6.35;;
49488;SDS011;35382;51.484;11.476;2023-05-14T07:20:05;8.40;;;6.80;;
49488;SDS011;35382;51.484;11.476;2023-05-14T07:21:48;8.13;;;6.15;;
49488;SDS011;35382;51.484;11.476;2023-05-14T07:23:29;9.40;;;6.93;;
49488;SDS011;35382;51.484;11.476;2023-05-14T07:25:10;7.72;;;6.85;;
49488;SDS011;35382;51.484;11.476;2023-05-14T07:26:51;9.23;;;6.78;;
49488;SDS011;35382;51.484;11.476;2023-05-14T07:28:34;10.85;;;6.30;;
49488;SDS011;35382;51.484;11.476;2023-05-14T07:30:15;8.40;;;6.47;;
49488;SDS011;35382;51.484;11.476;2023-05-14T07:31:56;8.10;;;6.35;;
49488;SDS011;35382;51.484;11.476;2023-05-14T07:33:37;8.00;;;5.40;;
49488;SDS011;35382;51.484;11.476;2023-05-14T07:35:18;8.40;;;5.80;;
49488;SDS011;35382;51.484;11.476;2023-05-14T07:37:00;6.90;;;5.35;;
49488;SDS011;35382;51.484;11.476;2023-05-14T07:38:41;7.32;;;5.60;;
49488;SDS011;35382;51.484;11.476;2023-05-14T07:40:22;6.93;;;5.32;;
49488;SDS011;35382;51.484;11.476;2023-05-14T07:42:04;6.75;;;5.20;;
49488;SDS011;35382;51.484;11.476;2023-05-14T07:43:45;9.18;;;5.22;;
49488;SDS011;35382;51.484;11.476;2023-05-14T07:45:28;7.97;;;5.53;;
49488;SDS011;35382;51.484;11.476;2023-05-14T07:47:09;7.88;;;5.40;;
49488;SDS011;35382;51.484;11.476;2023-05-14T07:48:50;7.65;;;4.88;;
49488;SDS011;35382;51.484;11.476;2023-05-14T07:50:35;6.90;;;5.07;;
49488;SDS011;35382;51.484;11.476;2023-05-14T07:52:16;7.90;;;5.78;;
49488;SDS011;35382;51.484;11.476;2023-05-14T07:53:57;7.05;;;5.68;;
49488;SDS011;35382;51.484;11.476;2023-05-14T07:55:38;7.95;;;6.28;;
49488;SDS011;35382;51.484;11.476;2023-05-14T07:57:19;9.30;;;6.60;;
49488;SDS011;35382;51.484;11.476;2023-05-14T07:59:01;7.57;;;5.88;;
49488;SDS011;35382;51.484;11.476;2023-05-14T08:00:42;7.18;;;5.13;;
49488;SDS011;35382;51.484;11.476;2023-05-14T08:02:23;8.98;;;5.55;;
49488;SDS011;35382;51.484;11.476;2023-05-14T08:04:04;7.35;;;5.50;;
49488;SDS011;35382;51.484;11.476;2023-05-14T08:05:45;7.80;;;5.95;;
49488;SDS011;35382;51.484;11.476;2023-05-14T08:07:26;9.68;;;6.35;;
49488;SDS011;35382;51.484;11.476;2023-05-14T08:09:08;8.10;;;5.38;;
49488;SDS011;35382;51.484;11.476;2023-05-14T08:10:50;10.55;;;6.20;;
49488;SDS011;35382;51.484;11.476;2023-05-14T08:12:31;8.50;;;5.72;;
49488;SDS011;35382;51.484;11.476;2023-05-14T08:14:12;6.70;;;5.50;;
49488;SDS011;35382;51.484;11.476;2023-05-14T08:15:53;8.10;;;5.80;;
49488;SDS011;35382;51.484;11.476;2023-05-14T08:17:34;8.18;;;5.60;;
49488;SDS011;35382;51.484;11.476;2023-05-14T08:19:15;7.78;;;5.70;;
49488;SDS011;35382;51.484;11.476;2023-05-14T08:20:56;7.93;;;5.63;;
49488;SDS011;35382;51.484;11.476;2023-05-14T08:22:37;7.22;;;6.00;;
49488;SDS011;35382;51.484;11.476;2023-05-14T08:24:18;7.22;;;5.50;;
49488;SDS011;35382;51.484;11.476;2023-05-14T08:25:59;7.45;;;6.00;;
49488;SDS011;35382;51.484;11.476;2023-05-14T08:27:39;8.80;;;6.78;;
49488;SDS011;35382;51.484;11.476;2023-05-14T08:29:23;8.00;;;6.07;;
49488;SDS011;35382;51.484;11.476;2023-05-14T08:31:05;8.38;;;6.50;;
49488;SDS011;35382;51.484;11.476;2023-05-14T08:32:46;8.90;;;6.40;;
49488;SDS011;35382;51.484;11.476;2023-05-14T08:34:27;8.40;;;6.32;;
49488;SDS011;35382;51.484;11.476;2023-05-14T08:36:08;8.98;;;6.10;;
49488;SDS011;35382;51.484;11.476;2023-05-14T08:37:50;9.63;;;7.10;;
49488;SDS011;35382;51.484;11.476;2023-05-14T08:39:31;7.43;;;6.00;;
49488;SDS011;35382;51.484;11.476;2023-05-14T08:41:12;8.90;;;6.78;;
49488;SDS011;35382;51.484;11.476;2023-05-14T08:42:58;8.20;;;6.63;;
49488;SDS011;35382;51.484;11.476;2023-05-14T08:46:28;9.68;;;7.18;;
49488;SDS011;35382;51.484;11.476;2023-05-14T08:48:10;10.40;;;7.30;;
49488;SDS011;35382;51.484;11.476;2023-05-14T08:50:02;8.05;;;7.00;;
49488;SDS011;35382;51.484;11.476;2023-05-14T08:51:44;8.02;;;6.07;;
49488;SDS011;35382;51.484;11.476;2023-05-14T08:53:30;10.27;;;6.65;;
49488;SDS011;35382;51.484;11.476;2023-05-14T08:55:11;8.38;;;6.43;;
49488;SDS011;35382;51.484;11.476;2023-05-14T08:56:53;8.18;;;5.90;;
49488;SDS011;35382;51.484;11.476;2023-05-14T08:58:34;6.35;;;5.65;;
49488;SDS011;35382;51.484;11.476;2023-05-14T09:00:17;7.07;;;5.38;;
49488;SDS011;35382;51.484;11.476;2023-05-14T09:02:00;8.35;;;5.47;;
49488;SDS011;35382;51.484;11.476;2023-05-14T09:03:42;7.90;;;6.53;;
49488;SDS011;35382;51.484;11.476;2023-05-14T09:05:23;9.23;;;6.22;;
49488;SDS011;35382;51.484;11.476;2023-05-14T09:07:04;9.38;;;6.32;;
49488;SDS011;35382;51.484;11.476;2023-05-14T09:08:47;6.80;;;5.50;;
49488;SDS011;35382;51.484;11.476;2023-05-14T09:10:29;8.98;;;5.57;;
49488;SDS011;35382;51.484;11.476;2023-05-14T09:12:11;7.60;;;5.55;;
49488;SDS011;35382;51.484;11.476;2023-05-14T09:13:52;8.57;;;5.00;;
49488;SDS011;35382;51.484;11.476;2023-05-14T09:15:33;6.03;;;4.70;;
49488;SDS011;35382;51.484;11.476;2023-05-14T09:17:17;6.18;;;4.78;;
49488;SDS011;35382;51.484;11.476;2023-05-14T09:19:00;6.95;;;5.13;;
49488;SDS011;35382;51.484;11.476;2023-05-14T09:20:41;6.75;;;4.90;;
49488;SDS011;35382;51.484;11.476;2023-05-14T09:22:22;8.27;;;5.35;;
49488;SDS011;35382;51.484;11.476;2023-05-14T09:24:03;8.95;;;6.25;;
49488;SDS011;35382;51.484;11.476;2023-05-14T09:25:45;7.65;;;5.70;;
49488;SDS011;35382;51.484;11.476;2023-05-14T09:27:28;8.52;;;5.15;;
49488;SDS011;35382;51.484;11.476;2023-05-14T09:29:09;8.88;;;5.28;;
49488;SDS011;35382;51.484;11.476;2023-05-14T09:30:50;8.85;;;5.00;;
49488;SDS011;35382;51.484;11.476;2023-05-14T09:32:35;6.05;;;4.82;;
49488;SDS011;35382;51.484;11.476;2023-05-14T09:36:29;9.60;;;5.10;;
49488;SDS011;35382;51.484;11.476;2023-05-14T09:38:11;5.60;;;4.80;;
49488;SDS011;35382;51.484;11.476;2023-05-14T09:39:54;6.32;;;4.70;;
49488;SDS011;35382;51.484;11.476;2023-05-14T09:41:35;6.85;;;4.70;;
49488;SDS011;35382;51.484;11.476;2023-05-14T09:43:17;6.97;;;4.78;;
49488;SDS011;35382;51.484;11.476;2023-05-14T09:44:58;7.43;;;4.72;;
49488;SDS011;35382;51.484;11.476;2023-05-14T09:46:41;7.25;;;4.68;;
49488;SDS011;35382;51.484;11.476;2023-05-14T09:48:23;7.22;;;4.45;;
49488;SDS011;35382;51.484;11.476;2023-05-14T09:50:05;7.20;;;5.20;;
49488;SDS011;35382;51.484;11.476;2023-05-14T09:51:47;6.95;;;5.05;;
49488;SDS011;35382;51.484;11.476;2023-05-14T09:53:28;6.68;;;4.88;;
49488;SDS011;35382;51.484;11.476;2023-05-14T09:55:10;7.53;;;5.25;;
49488;SDS011;35382;51.484;11.476;2023-05-14T09:56:54;6.35;;;5.40;;
49488;SDS011;35382;51.484;11.476;2023-05-14T09:58:37;9.60;;;5.63;;
49488;SDS011;35382;51.484;11.476;2023-05-14T10:00:18;7.82;;;5.45;;
49488;SDS011;35382;51.484;11.476;2023-05-14T10:01:59;6.72;;;5.15;;
49488;SDS011;35382;51.484;11.476;2023-05-14T10:03:40;6.78;;;5.50;;